sensor_id;sensor_type;location;lat;lon;timestamp;pressure;altitude;pressure_sealevel;temperature;humidity
71465;BME280;59274;49.874;9.154;2022-12-07T00:03:32;100554.84;;;2.92;100.00
71465;BME280;59274;49.874;9.154;2022-12-07T00:05:58;100552.81;;;2.89;100.00
71465;BME280;59274;49.874;9.154;2022-12-07T00:08:23;100541.78;;;2.90;100.00
71465;BME280;59274;49.874;9.154;2022-12-07T00:10:49;100549.19;;;2.93;100.00
71465;BME280;59274;49.874;9.154;2022-12-07T00:13:14;100549.50;;;3.00;100.00
71465;BME280;59274;49.874;9.154;2022-12-07T00:15:40;100540.06;;;3.03;100.00
71465;BME280;59274;49.874;9.154;2022-12-07T00:18:05;100537.06;;;3.04;100.00
71465;BME280;59274;49.874;9.154;2022-12-07T00:20:31;100532.78;;;3.03;100.00
71465;BME280;59274;49.874;9.154;2022-12-07T00:22:57;100529.81;;;3.05;100.00
71465;BME280;59274;49.874;9.154;2022-12-07T00:25:22;100520.50;;;3.11;100.00
71465;BME280;59274;49.874;9.154;2022-12-07T00:27:48;100526.34;;;3.04;100.00
71465;BME280;59274;49.874;9.154;2022-12-07T00:30:13;100520.00;;;3.00;100.00
71465;BME280;59274;49.874;9.154;2022-12-07T00:32:39;100518.91;;;3.01;100.00
71465;BME280;59274;49.874;9.154;2022-12-07T00:35:04;100515.44;;;3.01;100.00
71465;BME280;59274;49.874;9.154;2022-12-07T00:37:30;100507.56;;;3.04;100.00
71465;BME280;59274;49.874;9.154;2022-12-07T00:39:55;100512.44;;;3.02;100.00
71465;BME280;59274;49.874;9.154;2022-12-07T00:42:21;100512.75;;;3.01;100.00
71465;BME280;59274;49.874;9.154;2022-12-07T00:44:46;100510.06;;;3.01;100.00
71465;BME280;59274;49.874;9.154;2022-12-07T00:47:11;100505.34;;;2.98;100.00
71465;BME280;59274;49.874;9.154;2022-12-07T00:49:37;100496.03;;;3.04;100.00
71465;BME280;59274;49.874;9.154;2022-12-07T00:52:02;100497.13;;;3.03;100.00
71465;BME280;59274;49.874;9.154;2022-12-07T00:54:28;100491.28;;;3.01;100.00
71465;BME280;59274;49.874;9.154;2022-12-07T00:56:53;100501.69;;;3.02;100.00
71465;BME280;59274;49.874;9.154;2022-12-07T00:59:19;100506.13;;;3.07;100.00
71465;BME280;59274;49.874;9.154;2022-12-07T01:01:44;100521.75;;;3.22;100.00
71465;BME280;59274;49.874;9.154;2022-12-07T01:04:09;100512.59;;;3.14;100.00
71465;BME280;59274;49.874;9.154;2022-12-07T01:06:35;100512.44;;;3.20;100.00
71465;BME280;59274;49.874;9.154;2022-12-07T01:09:02;100510.38;;;3.08;100.00
71465;BME280;59274;49.874;9.154;2022-12-07T01:11:29;100507.22;;;3.06;100.00
71465;BME280;59274;49.874;9.154;2022-12-07T01:13:56;100505.97;;;3.12;100.00
71465;BME280;59274;49.874;9.154;2022-12-07T01:16:24;100495.56;;;3.10;100.00
71465;BME280;59274;49.874;9.154;2022-12-07T01:18:51;100492.38;;;3.08;100.00
71465;BME280;59274;49.874;9.154;2022-12-07T01:21:22;100493.19;;;3.09;100.00
71465;BME280;59274;49.874;9.154;2022-12-07T01:23:49;100497.75;;;3.17;100.00
71465;BME280;59274;49.874;9.154;2022-12-07T01:26:17;100496.97;;;3.17;100.00
71465;BME280;59274;49.874;9.154;2022-12-07T01:28:43;100503.91;;;3.09;100.00
71465;BME280;59274;49.874;9.154;2022-12-07T01:31:11;100499.34;;;3.18;100.00
71465;BME280;59274;49.874;9.154;2022-12-07T01:33:38;100503.13;;;3.17;100.00
71465;BME280;59274;49.874;9.154;2022-12-07T01:38:43;100498.22;;;3.28;100.00
71465;BME280;59274;49.874;9.154;2022-12-07T01:41:09;100501.69;;;3.28;100.00
71465;BME280;59274;49.874;9.154;2022-12-07T01:43:36;100497.28;;;3.15;100.00
71465;BME280;59274;49.874;9.154;2022-12-07T01:46:03;100498.84;;;3.07;100.00
71465;BME280;59274;49.874;9.154;2022-12-07T01:48:35;100494.75;;;3.10;100.00
71465;BME280;59274;49.874;9.154;2022-12-07T01:51:08;100492.41;;;3.17;100.00
71465;BME280;59274;49.874;9.154;2022-12-07T01:53:36;100485.94;;;3.18;100.00
71465;BME280;59274;49.874;9.154;2022-12-07T01:56:03;100488.13;;;3.16;100.00
71465;BME280;59274;49.874;9.154;2022-12-07T01:58:29;100488.44;;;3.06;100.00
71465;BME280;59274;49.874;9.154;2022-12-07T02:00:54;100484.97;;;3.14;100.00
71465;BME280;59274;49.874;9.154;2022-12-07T02:03:25;100484.66;;;3.07;100.00
71465;BME280;59274;49.874;9.154;2022-12-07T02:05:53;100486.06;;;3.13;100.00
71465;BME280;59274;49.874;9.154;2022-12-07T02:08:20;100477.22;;;3.21;100.00
71465;BME280;59274;49.874;9.154;2022-12-07T02:10:45;100483.88;;;3.24;100.00
71465;BME280;59274;49.874;9.154;2022-12-07T02:13:26;100485.91;;;3.35;100.00
71465;BME280;59274;49.874;9.154;2022-12-07T02:18:48;100475.50;;;3.34;100.00
71465;BME280;59274;49.874;9.154;2022-12-07T02:21:29;100475.66;;;3.37;100.00
71465;BME280;59274;49.874;9.154;2022-12-07T02:35:14;100464.91;;;3.46;100.00
71465;BME280;59274;49.874;9.154;2022-12-07T02:38:08;100462.41;;;3.41;100.00
71465;BME280;59274;49.874;9.154;2022-12-07T02:40:48;100463.16;;;3.41;100.00
71465;BME280;59274;49.874;9.154;2022-12-07T02:43:23;100450.22;;;3.43;100.00
71465;BME280;59274;49.874;9.154;2022-12-07T02:45:51;100460.81;;;3.40;100.00
71465;BME280;59274;49.874;9.154;2022-12-07T02:48:19;100467.59;;;3.46;100.00
71465;BME280;59274;49.874;9.154;2022-12-07T02:50:53;100460.03;;;3.39;100.00
71465;BME280;59274;49.874;9.154;2022-12-07T02:53:33;100455.44;;;3.31;100.00
71465;BME280;59274;49.874;9.154;2022-12-07T02:56:03;100449.28;;;3.39;100.00
71465;BME280;59274;49.874;9.154;2022-12-07T02:58:50;100449.47;;;3.26;100.00
71465;BME280;59274;49.874;9.154;2022-12-07T03:04:05;100448.31;;;3.44;100.00
71465;BME280;59274;49.874;9.154;2022-12-07T03:06:42;100445.78;;;3.47;100.00
71465;BME280;59274;49.874;9.154;2022-12-07T03:09:20;100437.56;;;3.52;100.00
71465;BME280;59274;49.874;9.154;2022-12-07T03:11:51;100437.09;;;3.50;100.00
71465;BME280;59274;49.874;9.154;2022-12-07T03:14:36;100431.91;;;3.45;100.00
71465;BME280;59274;49.874;9.154;2022-12-07T03:17:16;100438.38;;;3.44;100.00
71465;BME280;59274;49.874;9.154;2022-12-07T03:19:45;100433.47;;;3.46;100.00
71465;BME280;59274;49.874;9.154;2022-12-07T03:22:14;100435.50;;;3.49;100.00
71465;BME280;59274;49.874;9.154;2022-12-07T03:24:46;100431.91;;;3.45;100.00
71465;BME280;59274;49.874;9.154;2022-12-07T03:27:20;100435.00;;;3.56;100.00
71465;BME280;59274;49.874;9.154;2022-12-07T03:31:01;100433.00;;;3.53;100.00
71465;BME280;59274;49.874;9.154;2022-12-07T03:33:06;100443.84;;;3.57;100.00
71465;BME280;59274;49.874;9.154;2022-12-07T03:35:36;100426.16;;;3.55;100.00
71465;BME280;59274;49.874;9.154;2022-12-07T03:38:20;100439.59;;;3.55;100.00
71465;BME280;59274;49.874;9.154;2022-12-07T03:41:10;100433.28;;;3.51;100.00
71465;BME280;59274;49.874;9.154;2022-12-07T03:43:37;100432.66;;;3.54;100.00
71465;BME280;59274;49.874;9.154;2022-12-07T03:48:56;100428.69;;;3.61;100.00
71465;BME280;59274;49.874;9.154;2022-12-07T03:51:26;100426.34;;;3.59;100.00
71465;BME280;59274;49.874;9.154;2022-12-07T03:56:42;100432.34;;;3.56;100.00
71465;BME280;59274;49.874;9.154;2022-12-07T03:59:09;100436.09;;;3.64;100.00
71465;BME280;59274;49.874;9.154;2022-12-07T04:01:36;100428.03;;;3.64;100.00
71465;BME280;59274;49.874;9.154;2022-12-07T04:04:01;100421.16;;;3.54;100.00
71465;BME280;59274;49.874;9.154;2022-12-07T04:06:26;100417.69;;;3.45;100.00
71465;BME280;59274;49.874;9.154;2022-12-07T04:08:52;100419.25;;;3.54;100.00
71465;BME280;59274;49.874;9.154;2022-12-07T04:11:17;100429.50;;;3.52;100.00
71465;BME280;59274;49.874;9.154;2022-12-07T04:13:43;100433.47;;;3.55;100.00
71465;BME280;59274;49.874;9.154;2022-12-07T04:16:27;100427.59;;;3.62;100.00
71465;BME280;59274;49.874;9.154;2022-12-07T04:18:52;100425.84;;;3.66;100.00
71465;BME280;59274;49.874;9.154;2022-12-07T04:21:17;100425.53;;;3.59;100.00
71465;BME280;59274;49.874;9.154;2022-12-07T04:23:43;100421.16;;;3.54;100.00
71465;BME280;59274;49.874;9.154;2022-12-07T04:26:08;100426.47;;;3.63;100.00
71465;BME280;59274;49.874;9.154;2022-12-07T04:28:34;100425.34;;;3.64;100.00
71465;BME280;59274;49.874;9.154;2022-12-07T04:30:59;100408.94;;;3.65;100.00
71465;BME280;59274;49.874;9.154;2022-12-07T04:33:25;100418.41;;;3.63;100.00
71465;BME280;59274;49.874;9.154;2022-12-07T04:35:50;100416.84;;;3.62;100.00
71465;BME280;59274;49.874;9.154;2022-12-07T04:38:15;100413.53;;;3.56;100.00
71465;BME280;59274;49.874;9.154;2022-12-07T04:40:41;100413.69;;;3.60;100.00
71465;BME280;59274;49.874;9.154;2022-12-07T04:43:06;100419.25;;;3.54;100.00
71465;BME280;59274;49.874;9.154;2022-12-07T04:45:31;100420.34;;;3.53;100.00
71465;BME280;59274;49.874;9.154;2022-12-07T04:47:57;100418.59;;;3.58;100.00
71465;BME280;59274;49.874;9.154;2022-12-07T04:50:22;100417.00;;;3.65;100.00
71465;BME280;59274;49.874;9.154;2022-12-07T04:52:48;100411.63;;;3.57;100.00
71465;BME280;59274;49.874;9.154;2022-12-07T04:55:13;100423.16;;;3.57;100.00
71465;BME280;59274;49.874;9.154;2022-12-07T04:57:38;100416.72;;;3.49;100.00
71465;BME280;59274;49.874;9.154;2022-12-07T05:00:05;100413.59;;;3.47;100.00
71465;BME280;59274;49.874;9.154;2022-12-07T05:02:30;100411.34;;;3.49;100.00
71465;BME280;59274;49.874;9.154;2022-12-07T05:04:56;100413.09;;;3.54;100.00
71465;BME280;59274;49.874;9.154;2022-12-07T05:07:21;100412.59;;;3.61;100.00
71465;BME280;59274;49.874;9.154;2022-12-07T05:09:46;100413.81;;;3.63;100.00
71465;BME280;59274;49.874;9.154;2022-12-07T05:12:12;100415.59;;;3.59;100.00
71465;BME280;59274;49.874;9.154;2022-12-07T05:14:37;100412.13;;;3.59;100.00
71465;BME280;59274;49.874;9.154;2022-12-07T05:17:03;100417.50;;;3.50;100.00
71465;BME280;59274;49.874;9.154;2022-12-07T05:19:29;100416.41;;;3.42;100.00
71465;BME280;59274;49.874;9.154;2022-12-07T05:21:54;100412.13;;;3.50;100.00
71465;BME280;59274;49.874;9.154;2022-12-07T05:24:20;100412.78;;;3.47;100.00
71465;BME280;59274;49.874;9.154;2022-12-07T05:26:46;100410.22;;;3.59;100.00
71465;BME280;59274;49.874;9.154;2022-12-07T05:29:13;100412.75;;;3.55;100.00
71465;BME280;59274;49.874;9.154;2022-12-07T05:31:39;100420.34;;;3.62;100.00
71465;BME280;59274;49.874;9.154;2022-12-07T05:34:05;100416.88;;;3.53;100.00
71465;BME280;59274;49.874;9.154;2022-12-07T05:36:30;100414.66;;;3.55;100.00
71465;BME280;59274;49.874;9.154;2022-12-07T05:38:57;100404.84;;;3.59;100.00
71465;BME280;59274;49.874;9.154;2022-12-07T05:41:22;100407.41;;;3.47;100.00
71465;BME280;59274;49.874;9.154;2022-12-07T05:44:06;100416.09;;;3.52;100.00
71465;BME280;59274;49.874;9.154;2022-12-07T05:46:32;100416.88;;;3.53;100.00
71465;BME280;59274;49.874;9.154;2022-12-07T05:48:58;100406.28;;;3.57;100.00
71465;BME280;59274;49.874;9.154;2022-12-07T05:51:23;100413.09;;;3.54;100.00
71465;BME280;59274;49.874;9.154;2022-12-07T05:53:49;100411.19;;;3.54;100.00
71465;BME280;59274;49.874;9.154;2022-12-07T05:56:14;100405.81;;;3.54;100.00
71465;BME280;59274;49.874;9.154;2022-12-07T05:58:40;100409.91;;;3.61;100.00
71465;BME280;59274;49.874;9.154;2022-12-07T06:01:24;100407.22;;;3.61;100.00
71465;BME280;59274;49.874;9.154;2022-12-07T06:03:50;100410.84;;;3.65;100.00
71465;BME280;59274;49.874;9.154;2022-12-07T06:06:15;100412.44;;;3.57;100.00
71465;BME280;59274;49.874;9.154;2022-12-07T06:08:40;100411.00;;;3.60;99.87
71465;BME280;59274;49.874;9.154;2022-12-07T06:11:06;100412.22;;;3.71;100.00
71465;BME280;59274;49.874;9.154;2022-12-07T06:13:50;100414.31;;;3.65;100.00
71465;BME280;59274;49.874;9.154;2022-12-07T06:16:15;100407.66;;;3.63;100.00
71465;BME280;59274;49.874;9.154;2022-12-07T06:18:41;100410.66;;;3.70;100.00
71465;BME280;59274;49.874;9.154;2022-12-07T06:21:06;100408.72;;;3.79;100.00
71465;BME280;59274;49.874;9.154;2022-12-07T06:23:31;100403.53;;;3.74;100.00
71465;BME280;59274;49.874;9.154;2022-12-07T06:25:57;100409.50;;;3.79;100.00
71465;BME280;59274;49.874;9.154;2022-12-07T06:28:22;100405.63;;;3.60;98.55
71465;BME280;59274;49.874;9.154;2022-12-07T06:30:56;100415.44;;;3.55;99.11
71465;BME280;59274;49.874;9.154;2022-12-07T06:33:22;100414.00;;;3.58;99.03
71465;BME280;59274;49.874;9.154;2022-12-07T06:35:47;100412.28;;;3.53;99.04
71465;BME280;59274;49.874;9.154;2022-12-07T06:38:13;100408.66;;;3.49;99.15
71465;BME280;59274;49.874;9.154;2022-12-07T06:40:38;100415.13;;;3.57;98.73
71465;BME280;59274;49.874;9.154;2022-12-07T06:43:03;100401.25;;;3.46;99.07
71465;BME280;59274;49.874;9.154;2022-12-07T06:45:29;100411.34;;;3.49;99.62
71465;BME280;59274;49.874;9.154;2022-12-07T06:47:54;100412.63;;;3.43;100.00
71465;BME280;59274;49.874;9.154;2022-12-07T06:50:20;100408.97;;;3.57;99.28
71465;BME280;59274;49.874;9.154;2022-12-07T06:52:45;100407.56;;;3.50;99.06
71465;BME280;59274;49.874;9.154;2022-12-07T06:55:10;100408.22;;;3.47;98.90
71465;BME280;59274;49.874;9.154;2022-12-07T06:57:36;100405.69;;;3.42;99.35
71465;BME280;59274;49.874;9.154;2022-12-07T07:00:03;100409.31;;;3.46;98.77
71465;BME280;59274;49.874;9.154;2022-12-07T07:02:28;100421.28;;;3.49;99.12
71465;BME280;59274;49.874;9.154;2022-12-07T07:04:54;100409.16;;;3.43;98.78
71465;BME280;59274;49.874;9.154;2022-12-07T07:07:19;100416.41;;;3.42;99.15
71465;BME280;59274;49.874;9.154;2022-12-07T07:09:48;100414.69;;;3.46;98.90
71465;BME280;59274;49.874;9.154;2022-12-07T07:12:13;100408.22;;;3.39;99.07
71465;BME280;59274;49.874;9.154;2022-12-07T07:14:38;100417.50;;;3.50;98.91
71465;BME280;59274;49.874;9.154;2022-12-07T07:17:04;100412.00;;;3.46;98.30
71465;BME280;59274;49.874;9.154;2022-12-07T07:19:29;100425.56;;;3.41;98.73
71465;BME280;59274;49.874;9.154;2022-12-07T07:21:55;100421.00;;;3.42;99.02
71465;BME280;59274;49.874;9.154;2022-12-07T07:24:20;100420.19;;;3.50;98.73
71465;BME280;59274;49.874;9.154;2022-12-07T07:26:45;100425.25;;;3.51;98.68
71465;BME280;59274;49.874;9.154;2022-12-07T07:29:11;100426.34;;;3.50;98.92
71465;BME280;59274;49.874;9.154;2022-12-07T07:31:36;100421.44;;;3.61;98.05
71465;BME280;59274;49.874;9.154;2022-12-07T07:34:02;100427.13;;;3.60;97.58
71465;BME280;59274;49.874;9.154;2022-12-07T07:36:27;100428.22;;;3.59;97.50
71465;BME280;59274;49.874;9.154;2022-12-07T07:38:53;100431.09;;;3.53;98.16
71465;BME280;59274;49.874;9.154;2022-12-07T07:41:18;100425.72;;;3.53;98.09
71465;BME280;59274;49.874;9.154;2022-12-07T07:43:44;100431.09;;;3.53;98.13
71465;BME280;59274;49.874;9.154;2022-12-07T07:46:09;100430.91;;;3.59;98.28
71465;BME280;59274;49.874;9.154;2022-12-07T07:48:35;100434.69;;;3.58;98.58
71465;BME280;59274;49.874;9.154;2022-12-07T07:51:05;100430.44;;;3.57;97.90
71465;BME280;59274;49.874;9.154;2022-12-07T07:53:31;100430.88;;;3.67;97.45
71465;BME280;59274;49.874;9.154;2022-12-07T07:55:56;100430.13;;;3.58;97.66
71465;BME280;59274;49.874;9.154;2022-12-07T07:58:22;100434.22;;;3.64;97.53
71465;BME280;59274;49.874;9.154;2022-12-07T08:00:47;100432.66;;;3.54;98.20
71465;BME280;59274;49.874;9.154;2022-12-07T08:03:13;100437.38;;;3.66;97.87
71465;BME280;59274;49.874;9.154;2022-12-07T08:05:38;100436.25;;;3.67;97.14
71465;BME280;59274;49.874;9.154;2022-12-07T08:08:04;100432.78;;;3.67;97.02
71465;BME280;59274;49.874;9.154;2022-12-07T08:10:30;100428.69;;;3.69;97.07
71465;BME280;59274;49.874;9.154;2022-12-07T08:12:57;100431.03;;;3.71;97.34
71465;BME280;59274;49.874;9.154;2022-12-07T08:15:43;100439.06;;;3.79;96.88
71465;BME280;59274;49.874;9.154;2022-12-07T08:18:09;100430.09;;;3.75;96.70
71465;BME280;59274;49.874;9.154;2022-12-07T08:20:36;100428.81;;;3.73;97.08
71465;BME280;59274;49.874;9.154;2022-12-07T08:23:03;100431.19;;;3.74;96.53
71465;BME280;59274;49.874;9.154;2022-12-07T08:25:28;100436.41;;;3.71;96.73
71465;BME280;59274;49.874;9.154;2022-12-07T08:27:54;100433.72;;;3.71;96.92
71465;BME280;59274;49.874;9.154;2022-12-07T08:30:20;100438.78;;;3.64;97.44
71465;BME280;59274;49.874;9.154;2022-12-07T08:32:46;100427.09;;;3.68;97.30
71465;BME280;59274;49.874;9.154;2022-12-07T08:35:12;100434.06;;;3.69;97.16
71465;BME280;59274;49.874;9.154;2022-12-07T08:37:38;100442.53;;;3.80;96.80
71465;BME280;59274;49.874;9.154;2022-12-07T08:40:05;100440.94;;;3.79;97.14
71465;BME280;59274;49.874;9.154;2022-12-07T08:42:30;100439.22;;;3.83;96.68
71465;BME280;59274;49.874;9.154;2022-12-07T08:45:05;100445.97;;;3.89;96.10
71465;BME280;59274;49.874;9.154;2022-12-07T08:47:30;100443.41;;;4.01;96.03
71465;BME280;59274;49.874;9.154;2022-12-07T08:49:56;100445.09;;;4.06;95.96
71465;BME280;59274;49.874;9.154;2022-12-07T08:52:22;100438.94;;;4.05;95.56
71465;BME280;59274;49.874;9.154;2022-12-07T08:54:47;100442.84;;;4.16;95.71
71465;BME280;59274;49.874;9.154;2022-12-07T08:57:13;100426.41;;;4.18;95.19
71465;BME280;59274;49.874;9.154;2022-12-07T08:59:39;100429.97;;;4.30;94.56
71465;BME280;59274;49.874;9.154;2022-12-07T09:02:05;100426.19;;;4.31;94.86
71465;BME280;59274;49.874;9.154;2022-12-07T09:04:31;100430.88;;;4.34;94.01
71465;BME280;59274;49.874;9.154;2022-12-07T09:06:57;100440.41;;;4.32;94.45
71465;BME280;59274;49.874;9.154;2022-12-07T09:09:22;100442.84;;;4.46;94.39
71465;BME280;59274;49.874;9.154;2022-12-07T09:11:48;100443.19;;;4.44;93.93
71465;BME280;59274;49.874;9.154;2022-12-07T09:14:13;100449.19;;;4.41;93.85
71465;BME280;59274;49.874;9.154;2022-12-07T09:16:39;100447.31;;;4.62;93.30
71465;BME280;59274;49.874;9.154;2022-12-07T09:19:05;100452.44;;;4.76;93.17
71465;BME280;59274;49.874;9.154;2022-12-07T09:21:30;100445.00;;;4.82;92.60
71465;BME280;59274;49.874;9.154;2022-12-07T09:23:56;100456.59;;;4.94;91.93
71465;BME280;59274;49.874;9.154;2022-12-07T09:26:21;100446.56;;;5.03;91.34
71465;BME280;59274;49.874;9.154;2022-12-07T09:28:47;100449.84;;;5.09;90.86
71465;BME280;59274;49.874;9.154;2022-12-07T09:31:12;100451.13;;;5.24;90.97
71465;BME280;59274;49.874;9.154;2022-12-07T09:33:38;100450.06;;;5.37;91.44
71465;BME280;59274;49.874;9.154;2022-12-07T09:36:04;100450.59;;;5.30;90.89
71465;BME280;59274;49.874;9.154;2022-12-07T09:38:30;100446.34;;;5.41;91.00
71465;BME280;59274;49.874;9.154;2022-12-07T09:41:06;100441.69;;;5.50;89.64
71465;BME280;59274;49.874;9.154;2022-12-07T09:43:34;100442.94;;;5.53;88.97
71465;BME280;59274;49.874;9.154;2022-12-07T09:46:00;100444.91;;;5.44;89.38
71465;BME280;59274;49.874;9.154;2022-12-07T09:48:31;100439.31;;;5.49;89.26
71465;BME280;59274;49.874;9.154;2022-12-07T09:50:59;100434.13;;;5.44;88.71
71465;BME280;59274;49.874;9.154;2022-12-07T09:53:33;100433.75;;;5.33;88.89
71465;BME280;59274;49.874;9.154;2022-12-07T09:55:59;100427.25;;;5.34;88.55
71465;BME280;59274;49.874;9.154;2022-12-07T09:58:27;100438.88;;;5.26;89.13
71465;BME280;59274;49.874;9.154;2022-12-07T10:00:56;100429.69;;;5.27;88.93
71465;BME280;59274;49.874;9.154;2022-12-07T10:03:22;100427.47;;;5.29;88.88
71465;BME280;59274;49.874;9.154;2022-12-07T10:05:53;100427.59;;;5.33;89.76
71465;BME280;59274;49.874;9.154;2022-12-07T10:08:19;100428.47;;;5.25;88.89
71465;BME280;59274;49.874;9.154;2022-12-07T10:10:50;100423.75;;;5.22;88.96
71465;BME280;59274;49.874;9.154;2022-12-07T10:13:21;100415.81;;;5.04;89.02
71465;BME280;59274;49.874;9.154;2022-12-07T10:15:55;100418.97;;;5.06;89.09
71465;BME280;59274;49.874;9.154;2022-12-07T10:18:25;100417.91;;;5.20;89.36
71465;BME280;59274;49.874;9.154;2022-12-07T10:21:01;100421.34;;;5.08;88.85
71465;BME280;59274;49.874;9.154;2022-12-07T10:23:27;100418.06;;;5.02;88.90
71465;BME280;59274;49.874;9.154;2022-12-07T10:25:52;100423.50;;;5.15;89.14
71465;BME280;59274;49.874;9.154;2022-12-07T10:28:21;100420.09;;;5.05;88.38
71465;BME280;59274;49.874;9.154;2022-12-07T10:31:01;100417.00;;;5.16;87.31
71465;BME280;59274;49.874;9.154;2022-12-07T10:33:40;100413.75;;;5.22;87.35
71465;BME280;59274;49.874;9.154;2022-12-07T10:39:00;100404.88;;;5.09;88.75
71465;BME280;59274;49.874;9.154;2022-12-07T10:41:26;100403.47;;;5.24;88.37
71465;BME280;59274;49.874;9.154;2022-12-07T10:43:56;100408.69;;;5.21;87.36
71465;BME280;59274;49.874;9.154;2022-12-07T10:55:08;100412.19;;;5.66;86.24
71465;BME280;59274;49.874;9.154;2022-12-07T11:00:24;100408.47;;;5.71;85.14
71465;BME280;59274;49.874;9.154;2022-12-07T11:06:14;100409.97;;;5.80;85.50
71465;BME280;59274;49.874;9.154;2022-12-07T11:12:04;100390.47;;;6.08;84.48
71465;BME280;59274;49.874;9.154;2022-12-07T11:14:44;100396.34;;;5.77;84.63
71465;BME280;59274;49.874;9.154;2022-12-07T11:30:51;100374.69;;;5.61;84.33
71465;BME280;59274;49.874;9.154;2022-12-07T11:33:46;100376.69;;;5.52;85.83
71465;BME280;59274;49.874;9.154;2022-12-07T11:38:56;100366.03;;;5.43;85.81
71465;BME280;59274;49.874;9.154;2022-12-07T11:41:34;100365.13;;;5.39;86.21
71465;BME280;59274;49.874;9.154;2022-12-07T11:53:00;100359.53;;;5.69;85.75
71465;BME280;59274;49.874;9.154;2022-12-07T11:55:02;100351.66;;;5.76;85.39
71465;BME280;59274;49.874;9.154;2022-12-07T11:57:42;100353.72;;;5.79;84.90
71465;BME280;59274;49.874;9.154;2022-12-07T12:00:15;100350.44;;;5.85;84.11
71465;BME280;59274;49.874;9.154;2022-12-07T12:05:18;100349.34;;;5.99;83.95
71465;BME280;59274;49.874;9.154;2022-12-07T12:07:46;100353.72;;;5.91;82.47
71465;BME280;59274;49.874;9.154;2022-12-07T12:18:23;100336.63;;;5.63;81.98
71465;BME280;59274;49.874;9.154;2022-12-07T12:20:57;100336.06;;;5.69;84.46
71465;BME280;59274;49.874;9.154;2022-12-07T12:23:43;100325.84;;;5.63;83.88
71465;BME280;59274;49.874;9.154;2022-12-07T12:26:22;100327.19;;;5.57;84.48
71465;BME280;59274;49.874;9.154;2022-12-07T12:28:52;100325.41;;;5.73;83.22
71465;BME280;59274;49.874;9.154;2022-12-07T12:33:55;100323.16;;;5.87;82.58
71465;BME280;59274;49.874;9.154;2022-12-07T12:36:47;100324.09;;;6.03;82.20
71465;BME280;59274;49.874;9.154;2022-12-07T12:39:13;100318.13;;;5.98;82.64
71465;BME280;59274;49.874;9.154;2022-12-07T12:46:47;100312.63;;;5.94;83.01
71465;BME280;59274;49.874;9.154;2022-12-07T12:57:10;100299.81;;;6.03;82.41
71465;BME280;59274;49.874;9.154;2022-12-07T13:02:21;100302.94;;;6.17;81.99
71465;BME280;59274;49.874;9.154;2022-12-07T13:18:40;100289.06;;;5.67;84.10
71465;BME280;59274;49.874;9.154;2022-12-07T13:28:38;100279.63;;;5.73;84.03
71465;BME280;59274;49.874;9.154;2022-12-07T13:31:13;100278.47;;;5.62;84.61
71465;BME280;59274;49.874;9.154;2022-12-07T13:33:43;100273.09;;;5.49;84.79
71465;BME280;59274;49.874;9.154;2022-12-07T13:39:43;100279.50;;;5.45;85.23
71465;BME280;59274;49.874;9.154;2022-12-07T13:41:41;100274.00;;;5.41;85.20
71465;BME280;59274;49.874;9.154;2022-12-07T13:44:13;100280.16;;;5.42;84.08
71465;BME280;59274;49.874;9.154;2022-12-07T13:51:47;100278.69;;;5.69;83.47
71465;BME280;59274;49.874;9.154;2022-12-07T13:54:13;100281.84;;;5.83;83.09
71465;BME280;59274;49.874;9.154;2022-12-07T13:56:39;100282.19;;;5.81;83.18
71465;BME280;59274;49.874;9.154;2022-12-07T13:59:28;100282.53;;;5.92;82.65
71465;BME280;59274;49.874;9.154;2022-12-07T14:01:55;100273.09;;;5.74;82.35
71465;BME280;59274;49.874;9.154;2022-12-07T14:04:29;100266.44;;;5.83;82.05
71465;BME280;59274;49.874;9.154;2022-12-07T14:06:55;100264.53;;;5.84;82.10
71465;BME280;59274;49.874;9.154;2022-12-07T14:09:25;100262.88;;;5.92;82.26
71465;BME280;59274;49.874;9.154;2022-12-07T14:11:56;100251.09;;;5.96;82.83
71465;BME280;59274;49.874;9.154;2022-12-07T14:17:14;100266.47;;;5.96;82.89
71465;BME280;59274;49.874;9.154;2022-12-07T14:19:51;100266.03;;;5.94;82.83
71465;BME280;59274;49.874;9.154;2022-12-07T14:24:45;100274.53;;;5.83;83.01
71465;BME280;59274;49.874;9.154;2022-12-07T14:27:22;100270.63;;;5.81;82.94
71465;BME280;59274;49.874;9.154;2022-12-07T14:29:50;100279.13;;;5.83;83.56
71465;BME280;59274;49.874;9.154;2022-12-07T14:32:25;100268.50;;;5.74;84.25
71465;BME280;59274;49.874;9.154;2022-12-07T14:35:03;100258.41;;;5.59;85.18
71465;BME280;59274;49.874;9.154;2022-12-07T14:37:33;100275.78;;;5.62;85.99
71465;BME280;59274;49.874;9.154;2022-12-07T14:39:58;100264.25;;;5.37;86.13
71465;BME280;59274;49.874;9.154;2022-12-07T14:42:27;100270.47;;;5.04;88.02
71465;BME280;59274;49.874;9.154;2022-12-07T14:44:54;100268.38;;;5.10;89.05
71465;BME280;59274;49.874;9.154;2022-12-07T14:47:19;100265.00;;;5.01;91.21
71465;BME280;59274;49.874;9.154;2022-12-07T14:49:45;100261.41;;;4.97;91.17
71465;BME280;59274;49.874;9.154;2022-12-07T14:52:23;100265.88;;;4.93;91.00
71465;BME280;59274;49.874;9.154;2022-12-07T14:54:50;100257.34;;;4.91;91.11
71465;BME280;59274;49.874;9.154;2022-12-07T14:57:15;100263.06;;;4.89;91.76
71465;BME280;59274;49.874;9.154;2022-12-07T14:59:40;100267.91;;;4.96;90.81
71465;BME280;59274;49.874;9.154;2022-12-07T15:02:06;100257.78;;;4.93;91.58
71465;BME280;59274;49.874;9.154;2022-12-07T15:04:34;100267.84;;;4.71;90.16
71465;BME280;59274;49.874;9.154;2022-12-07T15:07:02;100264.56;;;4.66;90.93
71465;BME280;59274;49.874;9.154;2022-12-07T15:09:29;100265.19;;;4.51;91.22
71465;BME280;59274;49.874;9.154;2022-12-07T15:11:55;100271.22;;;4.48;92.00
71465;BME280;59274;49.874;9.154;2022-12-07T15:14:20;100263.41;;;4.55;91.86
71465;BME280;59274;49.874;9.154;2022-12-07T15:16:46;100270.34;;;4.56;91.89
71465;BME280;59274;49.874;9.154;2022-12-07T15:19:17;100264.31;;;4.59;91.89